createdAt,value
2023-05-01T00:00:24.579Z,72.0444
2023-05-01T00:01:25.678Z,72.7736
2023-05-01T00:02:26.797Z,72.8000
2023-05-01T00:03:27.878Z,72.5339
2023-05-01T00:04:28.763Z,72.1947
2023-05-01T00:05:29.785Z,72.5115
2023-05-01T00:06:30.926Z,72.1497
2023-05-01T00:07:31.929Z,73.1240
2023-05-01T00:08:32.909Z,72.1548
2023-05-01T00:09:33.945Z,71.7046
2023-05-01T00:10:34.957Z,71.5668
2023-05-01T00:11:36.063Z,71.4028
2023-05-01T00:12:37.155Z,71.8631
2023-05-01T00:13:38.081Z,71.9558
2023-05-01T00:14:39.108Z,71.1874
2023-05-01T00:15:40.159Z,71.6685
2023-05-01T00:16:41.258Z,71.1977
2023-05-01T00:17:42.320Z,71.5750
2023-05-01T00:18:43.259Z,71.6038
2023-05-01T00:19:44.310Z,71.1013
2023-05-01T00:20:45.322Z,71.3900
2023-05-01T00:21:46.459Z,71.5477
2023-05-01T00:22:47.423Z,71.6079
2023-05-01T00:23:48.471Z,71.5756
2023-05-01T00:24:49.482Z,70.8803
2023-05-01T00:25:50.558Z,71.0602
2023-05-01T00:26:51.597Z,71.2593
2023-05-01T00:27:52.651Z,71.5349
2023-05-01T00:28:53.936Z,71.6788
2023-05-01T00:29:54.943Z,72.0388
2023-05-01T00:30:55.732Z,72.2046
2023-05-01T00:31:56.838Z,72.5417
2023-05-01T00:32:57.860Z,73.0522
2023-05-01T00:33:58.913Z,74.1411
2023-05-01T00:34:59.880Z,74.3632
2023-05-01T00:36:00.961Z,75.1905
2023-05-01T00:37:01.957Z,74.6617
2023-05-01T00:38:03.088Z,74.9926
2023-05-01T00:39:04.061Z,74.4012
2023-05-01T00:40:05.100Z,74.2572
2023-05-01T00:41:06.138Z,74.2093
2023-05-01T00:42:07.207Z,74.0053
2023-05-01T00:43:08.237Z,74.8707
2023-05-01T00:44:09.287Z,75.9055
2023-05-01T00:45:10.260Z,76.1588
2023-05-01T00:46:11.376Z,76.3842
2023-05-01T00:47:12.339Z,76.7082
2023-05-01T00:48:13.435Z,75.8076
2023-05-01T00:49:14.437Z,77.9247
2023-05-01T00:50:15.489Z,79.4583
2023-05-01T00:51:16.506Z,80.6421
2023-05-01T00:52:17.565Z,81.9089
2023-05-01T00:53:18.577Z,82.3364
2023-05-01T00:54:19.656Z,81.1994
2023-05-01T00:55:20.645Z,82.0873
2023-05-01T00:56:21.656Z,81.3808
2023-05-01T00:57:22.672Z,82.2748
2023-05-01T00:58:23.750Z,83.8477
2023-05-01T00:59:24.793Z,84.6934
2023-05-01T01:00:25.849Z,84.9525
2023-05-01T01:01:26.973Z,83.7352
2023-05-01T01:02:27.922Z,84.8403
2023-05-01T01:03:29.006Z,85.5155
2023-05-01T01:04:30.074Z,85.1121
2023-05-01T01:05:31.022Z,86.3882
2023-05-01T01:06:32.058Z,86.5989
2023-05-01T01:07:33.094Z,86.4116
2023-05-01T01:08:34.161Z,86.6527
2023-05-01T01:09:35.334Z,87.0032
2023-05-01T01:10:36.161Z,86.7257
2023-05-01T01:11:37.221Z,87.6922
2023-05-01T01:12:38.252Z,87.7818
2023-05-01T01:13:39.301Z,87.7032
2023-05-01T01:14:40.301Z,88.0525
2023-05-01T01:15:41.320Z,88.8262
2023-05-01T01:16:42.354Z,88.8430
2023-05-01T01:17:43.417Z,89.0323
2023-05-01T01:18:44.438Z,89.4787
2023-05-01T01:19:45.490Z,89.7297
2023-05-01T01:20:46.507Z,90.3001
2023-05-01T01:21:47.586Z,90.3335
2023-05-01T01:22:48.514Z,90.7428
2023-05-01T01:23:49.584Z,90.7046
2023-05-01T01:24:50.593Z,89.9240
2023-05-01T01:25:51.652Z,90.2511
2023-05-01T01:26:52.645Z,90.3213
2023-05-01T01:27:53.692Z,90.9588
2023-05-01T01:28:54.765Z,91.3227
2023-05-01T01:29:56.200Z,91.8688
2023-05-01T01:30:56.908Z,91.9429
2023-05-01T01:31:57.825Z,91.9394
2023-05-01T01:32:58.885Z,91.9455
2023-05-01T01:33:59.945Z,91.6476
2023-05-01T01:35:00.934Z,92.0563
2023-05-01T01:36:01.970Z,92.0868
2023-05-01T01:37:02.999Z,92.0747
2023-05-01T01:38:04.016Z,92.5066
2023-05-01T01:39:05.091Z,92.5277
2023-05-01T01:40:06.171Z,92.7815
2023-05-01T01:41:07.174Z,93.1629
2023-05-01T01:42:08.210Z,93.4517
2023-05-01T01:43:09.183Z,93.7545
2023-05-01T01:44:10.274Z,93.9540
2023-05-01T01:45:11.273Z,94.1066
2023-05-01T01:46:12.382Z,94.1929
2023-05-01T01:47:13.356Z,94.1412
2023-05-01T01:48:14.378Z,94.2427
2023-05-01T01:49:15.382Z,94.5361
2023-05-01T01:50:16.537Z,94.5143
2023-05-01T01:51:17.496Z,94.5713
2023-05-01T01:52:18.551Z,94.5894
2023-05-01T01:53:19.590Z,94.4141
2023-05-01T01:54:20.591Z,94.4677
2023-05-01T01:55:21.611Z,94.5775
2023-05-01T01:56:22.658Z,94.6806
2023-05-01T01:57:23.704Z,94.9800
2023-05-01T01:58:24.747Z,95.1897
2023-05-01T01:59:25.742Z,95.1784
2023-05-01T02:00:26.801Z,95.0992
2023-05-01T02:01:27.824Z,95.0835
2023-05-01T02:02:28.980Z,95.1726
2023-05-01T02:03:29.971Z,94.8092
2023-05-01T02:04:30.949Z,94.3880
2023-05-01T02:05:31.939Z,94.5011
2023-05-01T02:06:33.040Z,94.7633
2023-05-01T02:07:34.021Z,94.8547
2023-05-01T02:08:35.120Z,95.2037
2023-05-01T02:09:36.136Z,94.9826
2023-05-01T02:10:37.155Z,95.1512
2023-05-01T02:11:38.194Z,95.4101
2023-05-01T02:12:39.212Z,95.5934
2023-05-01T02:13:40.297Z,95.3759
2023-05-01T02:14:41.345Z,95.3385
2023-05-01T02:15:42.347Z,95.6507
2023-05-01T02:16:43.393Z,95.7644
2023-05-01T02:17:44.407Z,95.8883
2023-05-01T02:18:45.473Z,96.1074
2023-05-01T02:19:46.517Z,96.1398
2023-05-01T02:20:47.542Z,96.1782
2023-05-01T02:21:48.533Z,96.1618
2023-05-01T02:22:49.573Z,96.3936
2023-05-01T02:23:50.623Z,96.4607
2023-05-01T02:24:51.673Z,96.4871
2023-05-01T02:25:52.655Z,96.5626
2023-05-01T02:26:53.693Z,96.4092
2023-05-01T02:27:54.723Z,96.5652
2023-05-01T02:28:55.791Z,96.7735
2023-05-01T02:29:57.150Z,96.8651
2023-05-01T02:30:57.853Z,96.9144
2023-05-01T02:31:59.056Z,96.9339
2023-05-01T02:32:59.958Z,97.0975
2023-05-01T02:34:00.955Z,97.0191
2023-05-01T02:35:02.001Z,96.8375
2023-05-01T02:36:02.977Z,96.7836
2023-05-01T02:37:04.010Z,96.9358
2023-05-01T02:38:05.036Z,97.0160
2023-05-01T02:39:06.136Z,97.0552
2023-05-01T02:40:07.165Z,97.0788
2023-05-01T02:41:08.175Z,96.9604
2023-05-01T02:42:09.233Z,96.9192
2023-05-01T02:43:10.255Z,97.1043
2023-05-01T02:44:11.281Z,97.3367
2023-05-01T02:45:12.314Z,97.4642
2023-05-01T02:46:13.341Z,97.4209
2023-05-01T02:47:14.407Z,97.2666
2023-05-01T02:48:15.381Z,97.3237
2023-05-01T02:49:16.479Z,97.4697
2023-05-01T02:50:17.516Z,97.5658
2023-05-01T02:51:18.504Z,97.4804
2023-05-01T02:52:19.543Z,97.4149
2023-05-01T02:53:20.598Z,97.4377
2023-05-01T02:54:21.633Z,97.5020
2023-05-01T02:55:22.679Z,97.5041
2023-05-01T02:56:23.679Z,97.6784
2023-05-01T02:57:24.743Z,97.6327
2023-05-01T02:58:25.776Z,97.6866
2023-05-01T02:59:26.826Z,97.7573
2023-05-01T03:00:27.869Z,97.5516
2023-05-01T03:01:28.905Z,97.3206
2023-05-01T03:02:29.878Z,97.2955
2023-05-01T03:03:30.942Z,97.3481
2023-05-01T03:04:32.038Z,97.5125
2023-05-01T03:05:33.024Z,97.4428
2023-05-01T03:06:34.073Z,97.3891
2023-05-01T03:07:35.102Z,97.5655
2023-05-01T03:08:36.103Z,97.6000
2023-05-01T03:09:37.158Z,97.7457
2023-05-01T03:10:38.217Z,97.8067
2023-05-01T03:11:39.203Z,97.8374
2023-05-01T03:12:40.257Z,97.7859
2023-05-01T03:13:41.256Z,97.8303
2023-05-01T03:14:42.333Z,97.9235
2023-05-01T03:15:43.338Z,97.9872
2023-05-01T03:16:44.433Z,97.9284
2023-05-01T03:17:45.408Z,98.0249
2023-05-01T03:18:46.441Z,98.0128
2023-05-01T03:19:47.457Z,97.9615
2023-05-01T03:20:48.529Z,98.0046
2023-05-01T03:21:49.519Z,98.0681
2023-05-01T03:22:50.568Z,98.1775
2023-05-01T03:23:51.593Z,98.2363
2023-05-01T03:24:52.668Z,98.1851
2023-05-01T03:25:53.698Z,98.2186
2023-05-01T03:26:54.737Z,98.2336
2023-05-01T03:27:55.713Z,98.2093
2023-05-01T03:28:56.762Z,98.1101
2023-05-01T03:29:58.060Z,98.1203
2023-05-01T03:30:58.876Z,98.0997
2023-05-01T03:31:59.940Z,98.1587
2023-05-01T03:33:00.975Z,98.1168
2023-05-01T03:34:01.918Z,98.0992
2023-05-01T03:35:03.113Z,98.1006
2023-05-01T03:36:04.044Z,98.0021
2023-05-01T03:37:05.061Z,98.0558
2023-05-01T03:38:06.110Z,98.0887
2023-05-01T03:39:07.136Z,98.1012
2023-05-01T03:40:08.184Z,98.0438
2023-05-01T03:41:09.211Z,98.0779
2023-05-01T03:42:10.210Z,98.2221
2023-05-01T03:43:11.273Z,98.2978
2023-05-01T03:44:12.251Z,98.2226
2023-05-01T03:45:13.339Z,98.2263
2023-05-01T03:46:14.421Z,98.2444
2023-05-01T03:47:15.388Z,98.3250
2023-05-01T03:48:16.397Z,98.2175
2023-05-01T03:49:17.469Z,98.0446
2023-05-01T03:50:18.508Z,98.0968
2023-05-01T03:51:19.533Z,98.1574
2023-05-01T03:52:20.508Z,98.1690
2023-05-01T03:53:21.570Z,98.0929
2023-05-01T03:54:22.613Z,98.1432
2023-05-01T03:55:23.675Z,98.2003
2023-05-01T03:56:24.653Z,98.1913
2023-05-01T03:57:25.753Z,98.2413
2023-05-01T03:58:26.721Z,98.2957
2023-05-01T03:59:27.827Z,98.3715
2023-05-01T04:00:28.812Z,98.3816
2023-05-01T04:01:29.873Z,98.3640
2023-05-01T04:02:30.973Z,98.3831
2023-05-01T04:03:31.974Z,98.3648
2023-05-01T04:04:33.049Z,98.3266
2023-05-01T04:05:33.992Z,98.3840
2023-05-01T04:06:35.081Z,98.4394
2023-05-01T04:07:36.056Z,98.4546
2023-05-01T04:08:37.054Z,98.4628
2023-05-01T04:09:38.123Z,98.4249
2023-05-01T04:10:39.163Z,98.3938
2023-05-01T04:11:40.215Z,98.4064
2023-05-01T04:12:41.194Z,98.3877
2023-05-01T04:13:42.322Z,98.4010
2023-05-01T04:14:43.280Z,98.3809
2023-05-01T04:15:44.393Z,98.4767
2023-05-01T04:16:45.359Z,98.5741
2023-05-01T04:17:46.402Z,98.5892
2023-05-01T04:18:47.412Z,98.4971
2023-05-01T04:19:48.464Z,98.4654
2023-05-01T04:20:49.510Z,98.4759
2023-05-01T04:21:50.553Z,98.5253
2023-05-01T04:22:51.518Z,98.5049
2023-05-01T04:23:52.570Z,98.5585
2023-05-01T04:24:53.604Z,98.5980
2023-05-01T04:25:54.729Z,98.6795
2023-05-01T04:26:55.710Z,98.6840
2023-05-01T04:27:56.752Z,98.6843
2023-05-01T04:28:57.757Z,98.5795
2023-05-01T04:29:59.040Z,98.6462
2023-05-01T04:30:59.840Z,98.7552
2023-05-01T04:32:00.984Z,98.7239
2023-05-01T04:33:02.008Z,98.6795
2023-05-01T04:34:02.944Z,98.7484
2023-05-01T04:35:04.319Z,98.7474
2023-05-01T04:36:05.003Z,98.7632
2023-05-01T04:37:06.032Z,98.6469
2023-05-01T04:38:07.089Z,98.6700
2023-05-01T04:39:08.070Z,98.7258
2023-05-01T04:40:11.262Z,98.7546
2023-05-01T04:41:10.148Z,98.7442
2023-05-01T04:42:11.233Z,98.6635
2023-05-01T04:43:12.230Z,98.6230
2023-05-01T04:44:13.258Z,98.6856
2023-05-01T04:45:14.273Z,98.5817
2023-05-01T04:46:15.331Z,98.5828
2023-05-01T04:47:16.367Z,98.5726
2023-05-01T04:48:17.439Z,98.5544
2023-05-01T04:49:18.389Z,98.5203
2023-05-01T04:50:19.455Z,98.5849
2023-05-01T04:51:20.457Z,98.5968
2023-05-01T04:52:21.582Z,98.6423
2023-05-01T04:53:22.602Z,98.6592
2023-05-01T04:54:23.588Z,98.5983
2023-05-01T04:55:24.599Z,98.6134
2023-05-01T04:56:25.662Z,98.6688
2023-05-01T04:57:26.687Z,98.7512
2023-05-01T04:58:27.710Z,98.7664
2023-05-01T04:59:28.752Z,98.7266
2023-05-01T05:00:29.768Z,98.6425
2023-05-01T05:01:30.903Z,98.6634
2023-05-01T05:02:32.128Z,98.7154
2023-05-01T05:03:33.032Z,98.6550
2023-05-01T05:04:34.030Z,98.6587
2023-05-01T05:05:35.008Z,98.7281
2023-05-01T05:06:36.075Z,98.6691
2023-05-01T05:07:37.066Z,98.6983
2023-05-01T05:08:38.130Z,98.7366
2023-05-01T05:09:39.155Z,98.7886
2023-05-01T05:10:40.154Z,98.6559
2023-05-01T05:11:41.217Z,98.6677
2023-05-01T05:12:42.242Z,98.6294
2023-05-01T05:13:43.349Z,98.6707
2023-05-01T05:14:44.350Z,98.6836
2023-05-01T05:15:45.374Z,98.6553
2023-05-01T05:16:46.401Z,98.7305
2023-05-01T05:17:47.463Z,98.7381
2023-05-01T05:18:48.478Z,98.7222
2023-05-01T05:19:49.532Z,98.8161
2023-05-01T05:20:50.523Z,98.8319
2023-05-01T05:21:51.536Z,98.8398
2023-05-01T05:22:52.550Z,98.7863
2023-05-01T05:23:53.655Z,98.7632
2023-05-01T05:24:54.667Z,98.6277
2023-05-01T05:25:55.713Z,98.6766
2023-05-01T05:26:56.730Z,98.7025
2023-05-01T05:27:57.750Z,98.6752
2023-05-01T05:28:58.750Z,98.6364
2023-05-01T05:29:59.858Z,98.6557
2023-05-01T05:31:00.875Z,98.6652
2023-05-01T05:32:01.992Z,98.6531
2023-05-01T05:33:03.025Z,98.6307
2023-05-01T05:34:03.953Z,98.6456
2023-05-01T05:35:04.951Z,98.6456
2023-05-01T05:36:06.053Z,98.6142
2023-05-01T05:37:07.075Z,98.5997
2023-05-01T05:38:08.092Z,98.5425
2023-05-01T05:39:09.116Z,98.5999
2023-05-01T05:40:10.177Z,98.5570
2023-05-01T05:41:11.210Z,98.5756
2023-05-01T05:42:12.248Z,98.6364
2023-05-01T05:43:13.237Z,98.6173
2023-05-01T05:44:14.280Z,98.6614
2023-05-01T05:45:15.282Z,98.6308
2023-05-01T05:46:16.360Z,98.6425
2023-05-01T05:47:17.395Z,98.6023
2023-05-01T05:48:18.405Z,98.6468
2023-05-01T05:49:19.432Z,98.7138
2023-05-01T05:50:20.476Z,98.7611
2023-05-01T05:51:21.523Z,98.7383
2023-05-01T05:52:22.577Z,98.6691
2023-05-01T05:53:25.706Z,98.7128
2023-05-01T05:54:24.637Z,98.6562
2023-05-01T05:55:25.605Z,98.6254
2023-05-01T05:56:26.699Z,98.6787
2023-05-01T05:57:27.697Z,98.7252
2023-05-01T05:58:28.743Z,98.6492
2023-05-01T05:59:29.757Z,98.6776
2023-05-01T06:00:30.892Z,98.7403
2023-05-01T06:01:31.867Z,98.7430
2023-05-01T06:02:33.035Z,98.7874
2023-05-01T06:03:34.100Z,98.7242
2023-05-01T06:04:34.938Z,98.7124
2023-05-01T06:05:35.976Z,98.7589
2023-05-01T06:06:37.124Z,98.7062
2023-05-01T06:07:38.054Z,98.6277
2023-05-01T06:08:39.136Z,98.6268
2023-05-01T06:09:40.178Z,98.6779
2023-05-01T06:10:41.259Z,98.6225
2023-05-01T06:11:42.302Z,98.6315
2023-05-01T06:12:50.005Z,98.7113
2023-05-01T06:13:44.391Z,98.7468
2023-05-01T06:14:45.370Z,98.8110
2023-05-01T06:15:46.466Z,98.8301
2023-05-01T06:16:47.439Z,98.8415
2023-05-01T06:17:48.612Z,98.7809
2023-05-01T06:18:49.538Z,98.7560
2023-05-01T06:19:50.521Z,98.7195
2023-05-01T06:20:51.533Z,98.7998
2023-05-01T06:21:52.598Z,98.8129
2023-05-01T06:22:53.664Z,98.7599
2023-05-01T06:23:54.725Z,98.6895
2023-05-01T06:24:55.697Z,98.6499
2023-05-01T06:25:56.735Z,98.6678
2023-05-01T06:26:58.681Z,98.6098
2023-05-01T06:27:58.854Z,98.4647
2023-05-01T06:28:59.920Z,98.4452
2023-05-01T06:30:00.941Z,98.4104
2023-05-01T06:31:01.815Z,98.3186
2023-05-01T06:32:02.899Z,98.3026
2023-05-01T06:33:03.913Z,98.2525
2023-05-01T06:34:04.951Z,98.2408
2023-05-01T06:35:05.921Z,98.1568
2023-05-01T06:36:06.973Z,98.1791
2023-05-01T06:37:08.024Z,98.1311
2023-05-01T06:38:09.092Z,98.1483
2023-05-01T06:39:10.117Z,98.1674
2023-05-01T06:40:11.135Z,98.0923
2023-05-01T06:41:12.160Z,98.1132
2023-05-01T06:42:13.174Z,98.0427
2023-05-01T06:43:14.248Z,98.0682
2023-05-01T06:44:15.291Z,97.9446
2023-05-01T06:45:16.312Z,97.8680
2023-05-01T06:46:17.388Z,97.7972
2023-05-01T06:47:18.320Z,97.6971
2023-05-01T06:48:19.370Z,97.6398
2023-05-01T06:49:20.411Z,97.4205
2023-05-01T06:50:21.491Z,97.3997
2023-05-01T06:51:22.491Z,97.3747
2023-05-01T06:52:23.537Z,97.3475
2023-05-01T06:53:24.558Z,97.3183
2023-05-01T06:54:25.704Z,97.2350
2023-05-01T06:55:26.671Z,97.1306
2023-05-01T06:56:27.669Z,97.1428
2023-05-01T06:57:28.692Z,97.1962
2023-05-01T06:58:29.753Z,97.0378
2023-05-01T06:59:30.792Z,96.9255
2023-05-01T07:00:31.837Z,96.9632
2023-05-01T07:01:35.322Z,97.0536
2023-05-01T07:02:33.943Z,96.8469
2023-05-01T07:03:35.013Z,96.6073
2023-05-01T07:04:35.976Z,96.7271
2023-05-01T07:05:37.008Z,96.5754
2023-05-01T07:06:38.154Z,96.5769
2023-05-01T07:07:47.280Z,96.6025
2023-05-01T07:08:40.082Z,96.5151
2023-05-01T07:09:41.166Z,96.6444
2023-05-01T07:10:42.496Z,96.5192
2023-05-01T07:11:43.234Z,96.7981
2023-05-01T07:12:44.198Z,96.5667
2023-05-01T07:13:45.260Z,96.3856
2023-05-01T07:14:46.338Z,96.5073
2023-05-01T07:15:47.352Z,96.4655
2023-05-01T07:16:48.490Z,96.3529
2023-05-01T07:17:49.449Z,96.5029
2023-05-01T07:18:50.466Z,96.4504
2023-05-01T07:19:51.495Z,96.4483
2023-05-01T07:20:52.540Z,96.4239
2023-05-01T07:21:53.553Z,96.5663
2023-05-01T07:22:54.587Z,96.4635
2023-05-01T07:23:55.784Z,96.4117
2023-05-01T07:24:56.720Z,96.4661
2023-05-01T07:25:57.713Z,96.2633
2023-05-01T07:26:58.722Z,96.2788
2023-05-01T07:27:59.757Z,96.3328
2023-05-01T07:29:00.796Z,96.4983
2023-05-01T07:30:01.870Z,96.4434
2023-05-01T07:31:02.937Z,96.3989
2023-05-01T07:32:04.088Z,96.4599
2023-05-01T07:33:04.963Z,96.5576
2023-05-01T07:34:05.934Z,96.3374
2023-05-01T07:35:07.009Z,96.0355
2023-05-01T07:36:08.139Z,96.3016
2023-05-01T07:37:09.290Z,96.4166
2023-05-01T07:38:10.076Z,96.2837
2023-05-01T07:39:11.142Z,96.5273
2023-05-01T07:40:12.221Z,96.3469
2023-05-01T07:41:13.213Z,96.2932
2023-05-01T07:42:14.272Z,96.2477
2023-05-01T07:43:15.262Z,96.4454
2023-05-01T07:44:16.304Z,96.4175
2023-05-01T07:45:17.316Z,96.2512
2023-05-01T07:46:18.403Z,96.4126
2023-05-01T07:47:19.468Z,96.7094
2023-05-01T07:48:20.437Z,96.5351
2023-05-01T07:49:21.578Z,96.5245
2023-05-01T07:50:22.483Z,96.4065
2023-05-01T07:51:23.570Z,96.2841
2023-05-01T07:52:24.588Z,96.4087
2023-05-01T07:53:25.619Z,96.3874
2023-05-01T07:54:26.634Z,96.3956
2023-05-01T07:55:27.699Z,96.4103
2023-05-01T07:56:28.738Z,96.7289
2023-05-01T07:57:29.771Z,96.8318
2023-05-01T07:58:30.758Z,96.6375
2023-05-01T07:59:31.821Z,96.5410
2023-05-01T08:00:32.815Z,96.6098
2023-05-01T08:01:33.932Z,96.5989
2023-05-01T08:02:34.978Z,96.3621
2023-05-01T08:03:36.003Z,96.2916
2023-05-01T08:04:37.023Z,96.0728
2023-05-01T08:05:38.148Z,96.0418
2023-05-01T08:06:39.189Z,95.9911
2023-05-01T08:07:40.127Z,96.1651
2023-05-01T08:08:41.149Z,96.1208
2023-05-01T08:09:42.333Z,96.0261
2023-05-01T08:10:43.173Z,95.7736
2023-05-01T08:11:44.209Z,95.7657
2023-05-01T08:12:45.297Z,95.3118
2023-05-01T08:13:46.367Z,95.8227
2023-05-01T08:14:47.309Z,95.5594
2023-05-01T08:15:48.493Z,95.4313
2023-05-01T08:16:49.520Z,95.4657
2023-05-01T08:17:50.678Z,95.5153
2023-05-01T08:18:51.631Z,95.4248
2023-05-01T08:19:52.654Z,95.0523
2023-05-01T08:20:53.639Z,94.8844
2023-05-01T08:21:54.657Z,94.6813
2023-05-01T08:22:55.734Z,95.0972
2023-05-01T08:23:56.773Z,94.9375
2023-05-01T08:24:57.831Z,94.8947
2023-05-01T08:25:58.841Z,94.7696
2023-05-01T08:26:59.876Z,94.5677
2023-05-01T08:28:00.935Z,93.9460
2023-05-01T08:29:02.025Z,94.0003
2023-05-01T08:30:03.006Z,94.4452
2023-05-01T08:31:04.067Z,94.2755
2023-05-01T08:32:04.951Z,94.1678
2023-05-01T08:33:06.183Z,94.2329
2023-05-01T08:34:07.241Z,94.1882
2023-05-01T08:35:08.157Z,94.2761
2023-05-01T08:36:09.199Z,94.3562
2023-05-01T08:37:10.316Z,94.0102
2023-05-01T08:38:11.385Z,93.8930
2023-05-01T08:39:12.436Z,93.8547
2023-05-01T08:40:13.401Z,93.4554
2023-05-01T08:41:14.425Z,93.7976
2023-05-01T08:42:15.460Z,93.2266
2023-05-01T08:43:16.512Z,93.5176
2023-05-01T08:44:17.582Z,93.7923
2023-05-01T08:45:18.499Z,93.2745
2023-05-01T08:46:19.592Z,93.5140
2023-05-01T08:47:20.672Z,93.7332
2023-05-01T08:48:21.674Z,93.5181
2023-05-01T08:49:22.673Z,92.8162
2023-05-01T08:50:23.721Z,93.6309
2023-05-01T08:51:24.714Z,93.4235
2023-05-01T08:52:25.751Z,92.7982
2023-05-01T08:53:26.826Z,93.2581
2023-05-01T08:54:27.870Z,93.2376
2023-05-01T08:55:28.909Z,92.9475
2023-05-01T08:56:29.986Z,92.8826
2023-05-01T08:57:30.915Z,93.6578
2023-05-01T08:58:32.125Z,93.2437
2023-05-01T08:59:33.038Z,93.3877
2023-05-01T09:00:34.041Z,93.3606
2023-05-01T09:01:35.170Z,92.7830
2023-05-01T09:02:36.219Z,92.7295
2023-05-01T09:03:37.260Z,92.9387
2023-05-01T09:04:38.271Z,92.4770
2023-05-01T09:05:39.312Z,93.2086
2023-05-01T09:06:40.388Z,92.8261
2023-05-01T09:07:41.346Z,93.1726
2023-05-01T09:08:42.446Z,92.5868
2023-05-01T09:09:43.513Z,92.8945
2023-05-01T09:10:44.484Z,93.2387
2023-05-01T09:11:45.572Z,93.6719
2023-05-01T09:12:46.550Z,93.5441
2023-05-01T09:13:47.610Z,93.3264
2023-05-01T09:14:48.747Z,93.4759
2023-05-01T09:15:49.676Z,93.3227
2023-05-01T09:16:50.813Z,92.1559
2023-05-01T09:17:51.758Z,92.5306
2023-05-01T09:18:52.768Z,92.8481
2023-05-01T09:19:53.834Z,92.4333
2023-05-01T09:20:54.809Z,92.3834
2023-05-01T09:21:55.867Z,92.2566
2023-05-01T09:22:56.878Z,92.4657
2023-05-01T09:23:57.930Z,92.3590
2023-05-01T09:24:59.028Z,92.5075
2023-05-01T09:26:00.036Z,91.4814
2023-05-01T09:27:01.107Z,92.0923
2023-05-01T09:28:02.053Z,92.0188
2023-05-01T09:29:03.203Z,92.6879
2023-05-01T09:30:04.187Z,92.1456
2023-05-01T09:31:05.150Z,92.0580
2023-05-01T09:32:06.206Z,92.0060
2023-05-01T09:33:07.285Z,91.8433
2023-05-01T09:34:08.299Z,91.6642
2023-05-01T09:35:09.356Z,90.8171
2023-05-01T09:36:10.290Z,91.7581
2023-05-01T09:37:11.385Z,90.6898
2023-05-01T09:38:12.372Z,89.8542
2023-05-01T09:39:13.497Z,89.7233
2023-05-01T09:40:14.568Z,90.1321
2023-05-01T09:41:15.491Z,89.6355
2023-05-01T09:42:16.568Z,89.7870
2023-05-01T09:43:17.556Z,90.7908
2023-05-01T09:44:18.629Z,90.9408
2023-05-01T09:45:19.727Z,90.4342
2023-05-01T09:46:20.708Z,90.1647
2023-05-01T09:47:21.772Z,89.1159
2023-05-01T09:48:22.713Z,90.0398
2023-05-01T09:49:23.784Z,89.5352
2023-05-01T09:50:24.856Z,88.4311
2023-05-01T09:51:25.812Z,89.2304
2023-05-01T09:52:26.815Z,89.3829
2023-05-01T09:53:27.987Z,89.8863
2023-05-01T09:54:28.934Z,89.1931
2023-05-01T09:55:30.032Z,89.8206
2023-05-01T09:56:31.067Z,89.0404
2023-05-01T09:57:32.032Z,88.1647
2023-05-01T09:58:33.056Z,89.5244
2023-05-01T09:59:34.150Z,89.8166
2023-05-01T10:00:35.174Z,88.2278
2023-05-01T10:01:36.248Z,87.7333
2023-05-01T10:02:37.244Z,87.1465
2023-05-01T10:03:38.626Z,87.8224
2023-05-01T10:04:39.295Z,87.5527
2023-05-01T10:05:40.374Z,88.7455
2023-05-01T10:06:41.474Z,88.5718
2023-05-01T10:07:42.505Z,87.7188
2023-05-01T10:08:43.417Z,87.5849
2023-05-01T10:09:44.543Z,87.7544
2023-05-01T10:10:45.564Z,88.5882
2023-05-01T10:11:46.534Z,88.3805
2023-05-01T10:12:47.627Z,87.7881
2023-05-01T10:13:48.602Z,88.2279
2023-05-01T10:14:49.721Z,87.9490
2023-05-01T10:15:50.836Z,87.6331
2023-05-01T10:16:51.794Z,86.8221
2023-05-01T10:17:52.818Z,87.6809
2023-05-01T10:18:53.775Z,87.6836
2023-05-01T10:19:55.227Z,87.2567
2023-05-01T10:20:55.909Z,86.7246
2023-05-01T10:21:56.943Z,87.4320
2023-05-01T10:22:57.984Z,86.4857
2023-05-01T10:23:59.011Z,86.6081
2023-05-01T10:25:00.047Z,86.9717
2023-05-01T10:26:02.508Z,86.9795
2023-05-01T10:27:02.108Z,86.7797
2023-05-01T10:28:03.071Z,86.7648
2023-05-01T10:29:04.122Z,85.3569
2023-05-01T10:30:05.300Z,85.5451
2023-05-01T10:31:06.261Z,84.7566
2023-05-01T10:32:07.219Z,84.4966
2023-05-01T10:33:08.368Z,85.1222
2023-05-01T10:34:09.287Z,84.4878
2023-05-01T10:35:10.390Z,83.7280
2023-05-01T10:36:11.432Z,84.1407
2023-05-01T10:37:12.455Z,84.1510
2023-05-01T10:38:13.426Z,83.5599
2023-05-01T10:39:14.508Z,84.1368
2023-05-01T10:40:15.590Z,83.6797
2023-05-01T10:41:16.588Z,82.0353
2023-05-01T10:42:17.634Z,79.6222
2023-05-01T10:43:18.653Z,80.4750
2023-05-01T10:44:19.717Z,81.0766
2023-05-01T10:45:20.752Z,80.3990
2023-05-01T10:46:21.914Z,81.7008
2023-05-01T10:47:22.808Z,81.5624
2023-05-01T10:48:23.805Z,82.3345
2023-05-01T10:49:24.878Z,80.7085
2023-05-01T10:50:25.952Z,81.9014
2023-05-01T10:51:28.271Z,80.7691
2023-05-01T10:52:27.969Z,79.4450
2023-05-01T10:53:28.986Z,79.3023
2023-05-01T10:54:29.991Z,81.4199
2023-05-01T10:55:31.185Z,82.0236
2023-05-01T10:56:32.164Z,82.6481
2023-05-01T10:57:33.149Z,82.1339
2023-05-01T10:58:34.162Z,82.3816
2023-05-01T10:59:35.275Z,83.6971
2023-05-01T11:00:36.277Z,83.4217
2023-05-01T11:01:37.389Z,83.3733
2023-05-01T11:02:38.336Z,83.0897
2023-05-01T11:03:39.360Z,84.2379
2023-05-01T11:04:40.336Z,84.3343
2023-05-01T11:05:41.582Z,83.0397
2023-05-01T11:06:42.642Z,82.4545
2023-05-01T11:07:43.478Z,82.0810
2023-05-01T11:08:45.544Z,82.5507
2023-05-01T11:09:45.506Z,83.5626
2023-05-01T11:10:46.616Z,83.3252
2023-05-01T11:11:47.674Z,83.7724
2023-05-01T11:12:48.679Z,83.3911
2023-05-01T11:13:49.675Z,84.0463
2023-05-01T11:14:50.697Z,84.4452
2023-05-01T11:15:51.844Z,84.7544
2023-05-01T11:16:52.865Z,84.7346
2023-05-01T11:17:53.911Z,86.2227
2023-05-01T11:18:54.855Z,86.0084
2023-05-01T11:19:55.886Z,87.1692
2023-05-01T11:20:56.944Z,86.7545
2023-05-01T11:21:57.973Z,86.9864
2023-05-01T11:22:59.026Z,87.6546
2023-05-01T11:24:00.023Z,86.0056
2023-05-01T11:25:01.056Z,86.9180
2023-05-01T11:26:02.092Z,86.1277
2023-05-01T11:27:03.187Z,86.8284
2023-05-01T11:28:04.178Z,87.2305
2023-05-01T11:29:05.270Z,87.5074
2023-05-01T11:30:06.226Z,88.0628
2023-05-01T11:31:07.364Z,87.1568
2023-05-01T11:32:08.483Z,88.9392
2023-05-01T11:33:10.964Z,88.3830
2023-05-01T11:34:10.361Z,89.3825
2023-05-01T11:35:11.411Z,88.6379
2023-05-01T11:36:12.457Z,89.5483
2023-05-01T11:37:13.504Z,89.2525
2023-05-01T11:38:14.465Z,88.8729
2023-05-01T11:39:15.557Z,87.5089
2023-05-01T11:40:16.571Z,88.3470
2023-05-01T11:41:19.254Z,88.5164
2023-05-01T11:42:18.721Z,88.2086
2023-05-01T11:43:19.755Z,86.3544
2023-05-01T11:44:20.694Z,85.2430
2023-05-01T11:45:21.772Z,86.3021
2023-05-01T11:46:22.846Z,87.2079
2023-05-01T11:47:23.898Z,86.4117
2023-05-01T11:48:24.843Z,86.4143
2023-05-01T11:49:25.876Z,86.1286
2023-05-01T11:50:26.895Z,85.1327
2023-05-01T11:51:28.048Z,85.3006
2023-05-01T11:52:29.026Z,84.4545
2023-05-01T11:53:30.049Z,84.8515
2023-05-01T11:54:31.039Z,85.0815
2023-05-01T11:55:32.080Z,85.0024
2023-05-01T11:56:33.162Z,85.5605
2023-05-01T11:57:34.188Z,85.1163
2023-05-01T11:58:35.227Z,85.2328
2023-05-01T11:59:36.190Z,86.2097
2023-05-01T12:00:37.216Z,84.5695
2023-05-01T12:01:38.296Z,84.5045
2023-05-01T12:02:39.428Z,84.0465
2023-05-01T12:03:40.420Z,84.2032
2023-05-01T12:04:41.384Z,84.1337
2023-05-01T12:05:42.419Z,83.4799
2023-05-01T12:06:43.541Z,82.9896
2023-05-01T12:07:44.510Z,84.2202
2023-05-01T12:08:45.513Z,83.6427
2023-05-01T12:09:46.568Z,84.0169
2023-05-01T12:10:47.563Z,84.3604
2023-05-01T12:11:50.537Z,83.7251
2023-05-01T12:12:49.724Z,84.4512
2023-05-01T12:13:50.637Z,84.0963
2023-05-01T12:14:51.669Z,84.2885
2023-05-01T12:15:52.755Z,84.7699
2023-05-01T12:16:53.871Z,83.6003
2023-05-01T12:17:54.856Z,82.7467